Time;durP1;ratioP1;P1;durP2;ratioP2;P2;SDS_P1;SDS_P2;PMS_P1;PMS_P2;Temp;Humidity;BMP_temperature;BMP_pressure;BME280_temperature;BME280_humidity;BME280_pressure;Samples;Min_cycle;Max_cycle;Signal;HPM_P1;HPM_P2
2021/09/15 00:01:21;;;;;;;12.57;11.30;;;19.30;99.90;;;;;;5107875;27;20042;-81
2021/09/15 00:03:47;;;;;;;12.35;11.02;;;19.30;99.90;;;;;;5106945;28;20031;-81
2021/09/15 00:06:14;;;;;;;11.45;10.40;;;19.30;99.90;;;;;;5092755;27;20043;-82
2021/09/15 00:08:40;;;;;;;10.68;9.60;;;19.30;99.90;;;;;;5106114;28;20031;-81
2021/09/15 00:11:06;;;;;;;11.82;10.70;;;19.30;99.90;;;;;;5068868;28;20043;-81
2021/09/15 00:13:33;;;;;;;13.25;10.68;;;19.30;99.90;;;;;;5109758;27;20046;-76
2021/09/15 00:15:59;;;;;;;11.23;10.23;;;19.30;99.90;;;;;;5098934;27;20028;-76
2021/09/15 00:18:26;;;;;;;12.02;10.93;;;19.30;99.90;;;;;;5111190;27;20055;-76
2021/09/15 00:20:52;;;;;;;11.45;10.20;;;19.30;99.90;;;;;;5106090;27;20051;-76
2021/09/15 00:23:20;;;;;;;11.20;10.20;;;19.30;99.90;;;;;;5107593;27;20096;-76
2021/09/15 00:25:47;;;;;;;11.88;10.55;;;19.20;99.90;;;;;;5092211;28;20210;-76
2021/09/15 00:28:13;;;;;;;10.73;9.75;;;19.20;99.90;;;;;;5095963;27;20051;-76
2021/09/15 00:30:39;;;;;;;10.10;9.05;;;19.30;99.90;;;;;;5108876;27;20516;-76
2021/09/15 00:33:06;;;;;;;10.40;9.40;;;19.20;99.90;;;;;;5092315;28;20052;-81
2021/09/15 00:35:32;;;;;;;9.88;8.90;;;19.20;99.90;;;;;;5105342;27;20525;-81
2021/09/15 00:38:05;;;;;;;;;;;19.20;99.90;;;;;;5113789;28;20505;-81
2021/09/15 00:40:32;;;;;;;9.13;8.23;;;19.20;99.90;;;;;;5106569;28;19915;-81
2021/09/15 00:42:59;;;;;;;9.75;8.70;;;19.20;99.90;;;;;;5074532;28;20043;-81
2021/09/15 00:45:25;;;;;;;10.05;8.15;;;19.10;99.90;;;;;;5082099;28;20051;-81
2021/09/15 00:47:52;;;;;;;8.90;8.10;;;19.20;99.90;;;;;;5107394;28;20930;-81
2021/09/15 00:50:21;;;;;;;10.43;9.05;;;19.10;99.90;;;;;;5090794;28;20054;-81
2021/09/15 00:52:47;;;;;;;9.35;8.32;;;19.10;99.90;;;;;;5105534;28;20039;-81
2021/09/15 00:55:14;;;;;;;11.05;9.00;;;19.10;99.90;;;;;;5069951;28;20031;-81
2021/09/15 00:57:41;;;;;;;8.90;7.97;;;19.10;99.90;;;;;;5037342;28;20055;-81
2021/09/15 01:00:09;;;;;;;13.25;8.52;;;19.10;99.90;;;;;;5103703;28;20047;-81
2021/09/15 01:02:37;;;;;;;8.70;7.80;;;19.00;99.90;;;;;;5106094;28;20050;-81
2021/09/15 01:05:09;;;;;;;9.52;8.52;;;19.00;99.90;;;;;;5075790;28;20047;-82
2021/09/15 01:07:38;;;;;;;9.45;8.38;;;18.90;99.90;;;;;;5088313;28;20402;-80
2021/09/15 01:10:07;;;;;;;8.93;8.02;;;18.90;99.90;;;;;;5088007;28;20039;-80
2021/09/15 01:12:39;;;;;;;7.55;6.38;;;18.90;99.90;;;;;;5108292;28;20054;-80
2021/09/15 01:15:38;;;;;;;8.15;7.35;;;18.80;99.90;;;;;;5080449;27;20055;-81
2021/09/15 01:18:25;;;;;;;9.38;8.55;;;18.80;99.90;;;;;;5082736;27;20039;-79
2021/09/15 01:21:10;;;;;;;10.13;8.70;;;18.80;99.90;;;;;;5109139;27;20871;-80
2021/09/15 01:23:57;;;;;;;8.38;7.65;;;18.80;99.90;;;;;;5100626;27;20048;-80
2021/09/15 01:26:52;;;;;;;10.23;9.23;;;18.70;99.90;;;;;;5084072;27;20040;-80
2021/09/15 01:29:38;;;;;;;11.02;9.95;;;18.80;99.90;;;;;;5092042;28;20055;-80
2021/09/15 01:32:16;;;;;;;10.23;9.20;;;18.80;99.90;;;;;;5093829;28;20043;-80
2021/09/15 01:34:52;;;;;;;9.32;8.43;;;18.70;99.90;;;;;;5092946;27;20043;-80
2021/09/15 01:37:22;;;;;;;8.43;7.63;;;18.70;99.90;;;;;;5093101;27;20046;-80
2021/09/15 01:39:54;;;;;;;29.02;25.95;;;18.70;99.90;;;;;;5093241;27;20042;-81
2021/09/15 01:42:21;;;;;;;19.52;17.48;;;18.60;99.90;;;;;;5094152;28;20043;-81
2021/09/15 01:44:48;;;;;;;17.10;15.30;;;18.60;99.90;;;;;;5091849;28;20055;-82
2021/09/15 01:47:18;;;;;;;12.95;11.60;;;18.60;99.90;;;;;;5074726;28;20047;-82
2021/09/15 01:49:46;;;;;;;10.93;9.82;;;18.50;99.90;;;;;;5107439;27;21524;-81
2021/09/15 01:52:14;;;;;;;10.38;9.25;;;18.50;99.90;;;;;;5094593;28;20066;-81
2021/09/15 01:54:42;;;;;;;11.95;8.98;;;18.50;99.90;;;;;;5094789;28;20058;-81
2021/09/15 01:57:09;;;;;;;9.90;9.00;;;18.40;99.90;;;;;;5088831;28;20051;-81
2021/09/15 01:59:54;;;;;;;9.98;7.95;;;18.40;99.90;;;;;;5097575;27;20056;-81
2021/09/15 02:02:39;;;;;;;8.70;7.53;;;18.40;99.90;;;;;;5109581;27;20050;-81
2021/09/15 02:05:12;;;;;;;10.43;7.32;;;18.30;99.90;;;;;;5092437;28;20065;-81
2021/09/15 02:07:51;;;;;;;8.63;7.80;;;18.30;99.90;;;;;;5112307;27;20040;-81
2021/09/15 02:10:34;;;;;;;8.75;7.50;;;18.30;99.90;;;;;;5089890;28;20048;-82
2021/09/15 02:13:03;;;;;;;10.20;8.95;;;18.20;99.90;;;;;;5110704;27;20048;-82
2021/09/15 02:15:31;;;;;;;9.95;8.35;;;18.20;99.90;;;;;;5072165;28;20052;-82
2021/09/15 02:17:59;;;;;;;9.27;8.02;;;18.20;99.90;;;;;;5109741;27;20039;-82
2021/09/15 02:20:44;;;;;;;9.85;8.15;;;18.20;99.90;;;;;;5092175;27;20055;-82
2021/09/15 02:23:30;;;;;;;9.23;8.32;;;18.20;99.90;;;;;;5109369;27;20042;-82
2021/09/15 02:26:28;;;;;;;8.73;7.82;;;18.20;99.90;;;;;;5080457;28;20039;-82
2021/09/15 02:28:55;;;;;;;8.68;7.75;;;18.30;99.90;;;;;;5074443;28;20056;-82
2021/09/15 02:31:50;;;;;;;8.85;8.07;;;18.20;99.90;;;;;;5099284;28;20044;-82
2021/09/15 02:34:35;;;;;;;9.02;8.13;;;18.20;99.90;;;;;;5108115;28;20027;-82
2021/09/15 02:37:34;;;;;;;8.60;7.80;;;18.20;99.90;;;;;;5084541;28;20039;-82
2021/09/15 02:40:19;;;;;;;9.88;8.52;;;18.20;99.90;;;;;;5106730;27;20490;-81
2021/09/15 02:42:59;;;;;;;8.38;7.57;;;18.20;99.90;;;;;;5077782;28;20826;-80
2021/09/15 02:45:34;;;;;;;9.07;7.97;;;18.20;99.90;;;;;;5108136;27;21160;-81
2021/09/15 02:48:14;;;;;;;9.65;8.57;;;18.20;99.90;;;;;;5107725;27;20036;-83
2021/09/15 02:51:03;;;;;;;10.13;8.70;;;18.20;99.90;;;;;;5074769;28;20601;-81
2021/09/15 02:53:56;;;;;;;8.98;8.07;;;18.20;99.90;;;;;;5097154;27;20051;-81
2021/09/15 02:56:44;;;;;;;9.43;8.20;;;18.30;99.90;;;;;;5090151;28;20043;-81
2021/09/15 02:59:13;;;;;;;10.75;8.82;;;18.30;99.90;;;;;;5090748;27;20924;-81
2021/09/15 03:01:52;;;;;;;9.50;8.63;;;18.30;99.90;;;;;;5090764;28;20046;-81
2021/09/15 03:04:37;;;;;;;9.93;8.93;;;18.30;99.90;;;;;;5110045;27;20050;-82
2021/09/15 03:07:30;;;;;;;9.93;8.85;;;18.30;99.90;;;;;;5093394;28;20031;-81
2021/09/15 03:09:57;;;;;;;9.95;8.98;;;18.30;99.90;;;;;;5090377;28;20405;-81
2021/09/15 03:12:23;;;;;;;9.50;8.60;;;18.30;99.90;;;;;;5089615;28;20036;-81
2021/09/15 03:14:50;;;;;;;10.18;8.82;;;18.40;99.90;;;;;;5079079;27;20074;-76
2021/09/15 03:17:17;;;;;;;11.15;9.45;;;18.40;99.90;;;;;;5097413;27;20054;-76
2021/09/15 03:19:43;;;;;;;10.40;8.60;;;18.40;99.90;;;;;;5109902;27;20047;-76
2021/09/15 03:22:10;;;;;;;10.60;9.50;;;18.40;99.90;;;;;;5093076;27;20047;-76
2021/09/15 03:24:36;;;;;;;11.10;9.98;;;18.40;99.90;;;;;;5115416;27;20030;-75
2021/09/15 03:37:25;;;;;;;9.13;8.05;;;18.50;99.90;;;;;;3160976;24;20079;-89
2021/09/15 03:39:52;;;;;;;9.05;8.15;;;18.50;99.90;;;;;;4741540;30;20056;-88
2021/09/15 03:42:19;;;;;;;8.98;8.27;;;18.50;99.90;;;;;;4754360;30;20051;-88
2021/09/15 03:44:48;;;;;;;9.88;8.70;;;18.50;99.90;;;;;;4747157;30;20047;-88
2021/09/15 03:47:24;;;;;;;9.95;8.60;;;18.60;99.90;;;;;;4755990;30;20051;-88
2021/09/15 03:49:54;;;;;;;11.98;10.05;;;18.60;99.90;;;;;;4744151;30;20062;-88
2021/09/15 03:52:23;;;;;;;11.10;10.05;;;18.60;99.90;;;;;;4741924;30;20066;-88
2021/09/15 03:54:50;;;;;;;10.38;9.48;;;18.60;99.90;;;;;;4757834;30;20058;-89
2021/09/15 03:57:18;;;;;;;11.05;9.60;;;18.50;99.90;;;;;;4754245;30;20056;-88
2021/09/15 03:59:44;;;;;;;10.65;9.55;;;18.50;99.90;;;;;;4757970;30;20062;-88
2021/09/15 04:02:12;;;;;;;10.75;9.15;;;18.60;99.90;;;;;;4761047;30;20062;-88
2021/09/15 04:04:38;;;;;;;11.35;8.75;;;18.50;99.90;;;;;;4750801;30;20044;-88
2021/09/15 04:07:07;;;;;;;10.30;9.30;;;18.50;99.90;;;;;;4771483;30;20518;-88
2021/09/15 04:09:35;;;;;;;11.02;9.25;;;18.60;99.90;;;;;;4775362;30;20047;-88
2021/09/15 04:12:02;;;;;;;15.15;9.65;;;18.60;99.90;;;;;;4753218;30;20051;-88
2021/09/15 04:14:29;;;;;;;10.40;9.38;;;18.60;99.90;;;;;;4757398;30;20047;-90
2021/09/15 04:16:59;;;;;;;10.80;9.27;;;18.60;99.90;;;;;;4724459;30;20568;-89
2021/09/15 04:19:26;;;;;;;11.55;10.38;;;18.60;99.90;;;;;;4747009;30;20534;-88
2021/09/15 04:21:53;;;;;;;10.40;9.43;;;18.60;99.90;;;;;;4732823;30;20440;-87
2021/09/15 04:32:23;;;;;;;9.88;8.88;;;18.60;99.90;;;;;;4746431;30;20047;-88
2021/09/15 04:34:50;;;;;;;9.13;8.20;;;18.60;99.90;;;;;;4746353;30;20051;-88
2021/09/15 04:37:17;;;;;;;11.52;9.30;;;18.60;99.90;;;;;;4749065;30;20070;-89
2021/09/15 04:39:46;;;;;;;10.40;8.95;;;18.60;99.90;;;;;;4734147;30;20051;-88
2021/09/15 04:42:12;;;;;;;11.43;8.93;;;18.60;99.90;;;;;;4732984;30;20050;-88
2021/09/15 04:44:39;;;;;;;10.27;9.27;;;18.60;99.90;;;;;;4735635;30;20474;-89
2021/09/15 04:47:06;;;;;;;10.35;9.32;;;18.60;99.90;;;;;;4731767;30;20052;-88
2021/09/15 04:49:34;;;;;;;10.90;9.65;;;18.60;99.90;;;;;;4721234;30;20052;-90
2021/09/15 04:52:01;;;;;;;11.10;9.63;;;18.60;99.90;;;;;;4738158;30;20052;-90
2021/09/15 04:54:30;;;;;;;9.90;9.00;;;18.50;99.90;;;;;;4723040;30;20052;-88
2021/09/15 04:56:56;;;;;;;10.52;9.63;;;18.60;99.90;;;;;;4735025;30;20057;-88
2021/09/15 04:59:25;;;;;;;9.68;8.68;;;18.60;99.90;;;;;;4724442;30;20434;-89
2021/09/15 05:01:55;;;;;;;12.15;10.23;;;18.60;99.90;;;;;;4723527;30;20075;-89
2021/09/15 05:04:21;;;;;;;9.57;8.68;;;18.60;99.90;;;;;;4750506;30;20083;-89
2021/09/15 05:07:02;;;;;;;10.02;9.02;;;18.60;99.90;;;;;;4739623;30;20412;-89
2021/09/15 05:09:29;;;;;;;10.73;9.60;;;18.60;99.90;;;;;;4724946;30;20055;-89
2021/09/15 05:11:56;;;;;;;10.48;9.55;;;18.60;99.90;;;;;;4737252;30;20423;-89
2021/09/15 05:14:22;;;;;;;10.50;8.98;;;18.60;99.90;;;;;;4739025;30;20067;-89
2021/09/15 05:16:50;;;;;;;9.88;8.88;;;18.60;99.90;;;;;;4737145;30;20048;-89
2021/09/15 05:19:16;;;;;;;9.80;8.80;;;18.60;99.90;;;;;;4738337;30;20059;-88
2021/09/15 05:21:48;;;;;;;10.23;9.27;;;18.60;99.90;;;;;;4725979;30;20041;-88
2021/09/15 05:24:17;;;;;;;11.88;8.95;;;18.70;99.90;;;;;;4737926;30;20051;-89
2021/09/15 05:26:44;;;;;;;10.77;9.68;;;18.60;99.90;;;;;;4739791;30;20051;-89
2021/09/15 05:29:11;;;;;;;11.27;9.05;;;18.60;99.90;;;;;;4736424;30;20117;-88
2021/09/15 05:31:37;;;;;;;10.13;9.10;;;18.70;99.90;;;;;;4722214;30;20059;-87
2021/09/15 05:34:07;;;;;;;10.23;9.20;;;18.60;99.90;;;;;;4748203;30;20508;-91
2021/09/15 05:36:34;;;;;;;10.30;9.30;;;18.70;99.90;;;;;;4741617;30;20044;-90
2021/09/15 05:39:03;;;;;;;12.63;9.63;;;18.70;99.90;;;;;;4729100;30;20086;-90
2021/09/15 05:41:32;;;;;;;11.00;9.65;;;18.70;99.90;;;;;;4727966;30;20505;-87
2021/09/15 05:43:59;;;;;;;10.88;9.77;;;18.70;99.90;;;;;;4740228;30;20493;-88
2021/09/15 05:46:27;;;;;;;11.35;10.25;;;18.70;99.90;;;;;;4708133;30;20053;-89
2021/09/15 05:48:53;;;;;;;12.88;10.32;;;18.70;99.90;;;;;;4726205;30;20052;-89
2021/09/15 05:51:34;;;;;;;13.55;9.82;;;18.70;99.90;;;;;;4726382;30;20120;-93
2021/09/15 05:54:08;;;;;;;10.73;9.73;;;18.70;99.90;;;;;;4747531;30;20056;-89
2021/09/15 05:56:38;;;;;;;11.43;10.32;;;18.70;99.90;;;;;;4724558;30;20063;-88
2021/09/15 05:59:09;;;;;;;11.02;10.05;;;18.70;99.90;;;;;;4755640;30;20051;-87
2021/09/15 06:01:36;;;;;;;12.23;11.10;;;18.60;99.90;;;;;;4736402;30;20527;-88
2021/09/15 06:04:05;;;;;;;10.30;9.18;;;18.60;99.90;;;;;;4748944;30;20416;-88
2021/09/15 06:07:00;;;;;;;12.77;10.25;;;18.60;99.90;;;;;;4743436;30;20051;-88
2021/09/15 06:09:50;;;;;;;14.40;10.65;;;18.50;99.90;;;;;;4731921;30;20052;-89
2021/09/15 06:12:26;;;;;;;12.05;10.48;;;18.50;99.90;;;;;;4721797;30;20044;-83
2021/09/15 06:14:52;;;;;;;11.20;9.65;;;18.50;99.90;;;;;;4743916;30;20055;-85
2021/09/15 06:17:19;;;;;;;11.98;10.82;;;18.50;99.90;;;;;;4716980;30;20085;-87
2021/09/15 06:19:49;;;;;;;11.70;10.50;;;18.50;99.90;;;;;;4729277;30;20044;-87
2021/09/15 06:22:40;;;;;;;11.68;10.50;;;18.50;99.90;;;;;;4733836;30;20063;-87
2021/09/15 06:25:32;;;;;;;11.45;10.40;;;18.50;99.90;;;;;;4760120;30;20040;-89
2021/09/15 06:28:06;;;;;;;11.70;10.55;;;18.50;99.90;;;;;;4740282;30;20056;-92
2021/09/15 06:30:34;;;;;;;12.45;11.13;;;18.50;99.90;;;;;;4739029;30;20052;-94
2021/09/15 06:33:01;;;;;;;12.27;11.05;;;18.50;99.90;;;;;;4722343;30;20056;-91
2021/09/15 06:35:27;;;;;;;12.80;11.32;;;18.60;99.90;;;;;;4749211;30;20385;-90
2021/09/15 06:37:54;;;;;;;16.48;11.50;;;18.60;99.90;;;;;;4730843;30;20052;-90
2021/09/15 06:40:20;;;;;;;14.55;11.55;;;18.60;99.90;;;;;;4717616;30;20061;-91
2021/09/15 06:42:47;;;;;;;13.05;11.68;;;18.60;99.90;;;;;;4718365;30;20457;-91
2021/09/15 06:45:13;;;;;;;12.48;10.90;;;18.60;99.90;;;;;;4751090;30;20044;-90
2021/09/15 06:47:44;;;;;;;13.70;12.07;;;18.70;99.90;;;;;;4734174;30;20044;-91
2021/09/15 06:50:13;;;;;;;13.25;11.95;;;18.70;99.90;;;;;;4718964;30;20516;-87
2021/09/15 06:52:40;;;;;;;14.23;11.75;;;18.70;99.90;;;;;;4750212;30;20036;-89
2021/09/15 06:55:09;;;;;;;14.23;12.27;;;18.70;99.90;;;;;;4737249;30;20439;-90
2021/09/15 06:57:38;;;;;;;13.93;12.38;;;18.70;99.90;;;;;;4724076;30;20051;-89
2021/09/15 07:00:07;;;;;;;14.30;12.93;;;18.70;99.90;;;;;;4734622;30;20051;-88
2021/09/15 07:02:33;;;;;;;15.10;13.45;;;18.70;99.90;;;;;;4719869;30;20052;-88
2021/09/15 07:05:00;;;;;;;13.88;12.48;;;18.80;99.90;;;;;;4708905;30;20052;-89
2021/09/15 07:07:27;;;;;;;14.10;12.65;;;18.80;99.90;;;;;;4751500;30;20497;-89
2021/09/15 07:09:53;;;;;;;15.48;13.00;;;18.80;99.90;;;;;;4738022;30;20069;-89
2021/09/15 07:12:20;;;;;;;15.40;12.60;;;18.80;99.90;;;;;;4735906;30;20051;-88
2021/09/15 07:14:46;;;;;;;13.80;12.40;;;18.90;99.90;;;;;;4753785;30;20412;-89
2021/09/15 07:17:13;;;;;;;14.82;13.23;;;18.90;99.90;;;;;;4725900;30;20051;-88
2021/09/15 07:19:40;;;;;;;14.07;12.80;;;18.90;99.90;;;;;;4753229;30;20496;-88
2021/09/15 07:22:08;;;;;;;14.15;12.70;;;18.90;99.90;;;;;;4735502;30;20052;-88
2021/09/15 07:24:35;;;;;;;13.57;11.88;;;18.90;99.90;;;;;;4721948;30;20052;-87
2021/09/15 07:27:02;;;;;;;15.75;12.68;;;18.90;99.90;;;;;;4723071;30;20052;-88
2021/09/15 07:29:34;;;;;;;13.75;12.20;;;18.90;99.90;;;;;;4755208;30;20388;-88
2021/09/15 07:32:06;;;;;;;15.40;13.80;;;19.00;99.90;;;;;;4739435;30;20404;-88
2021/09/15 07:34:33;;;;;;;14.60;12.93;;;19.00;99.90;;;;;;4724646;30;20060;-89
2021/09/15 07:37:02;;;;;;;15.85;14.35;;;19.00;99.90;;;;;;4734570;30;20052;-86
2021/09/15 07:39:29;;;;;;;14.68;13.18;;;19.10;99.90;;;;;;4750663;30;20052;-88
2021/09/15 07:41:56;;;;;;;16.77;15.18;;;19.10;99.90;;;;;;4720920;30;20055;-88
2021/09/15 07:44:22;;;;;;;17.83;15.95;;;19.10;99.90;;;;;;4732940;30;20055;-89
2021/09/15 07:46:50;;;;;;;18.23;16.42;;;19.10;99.90;;;;;;4749205;30;20039;-86
2021/09/15 07:49:22;;;;;;;17.13;15.50;;;19.10;99.90;;;;;;4730986;30;20416;-86
2021/09/15 07:51:49;;;;;;;16.92;13.98;;;19.10;99.90;;;;;;4726955;30;20052;-86
2021/09/15 07:54:16;;;;;;;16.23;14.63;;;19.20;99.90;;;;;;4724416;30;20060;-86
2021/09/15 07:56:43;;;;;;;15.60;14.10;;;19.30;99.90;;;;;;4732453;30;20520;-86
2021/09/15 07:59:09;;;;;;;14.88;13.40;;;19.30;99.90;;;;;;4723055;30;20598;-86
2021/09/15 08:01:36;;;;;;;14.93;13.48;;;19.30;99.90;;;;;;4735575;30;20063;-86
2021/09/15 08:04:03;;;;;;;15.70;14.20;;;19.30;99.90;;;;;;4715899;30;20048;-86
2021/09/15 08:06:30;;;;;;;15.75;13.63;;;19.30;99.90;;;;;;4747365;30;20055;-86
2021/09/15 08:09:02;;;;;;;15.63;14.00;;;19.30;99.90;;;;;;4722717;30;20048;-85
2021/09/15 08:11:32;;;;;;;17.60;14.98;;;19.30;99.90;;;;;;4727969;30;20488;-85
2021/09/15 08:14:12;;;;;;;16.58;14.88;;;19.30;99.90;;;;;;4732527;30;20059;-85
2021/09/15 08:16:54;;;;;;;17.45;14.52;;;19.30;99.90;;;;;;4711513;30;20060;-81
2021/09/15 08:19:27;;;;;;;17.80;14.97;;;19.30;99.90;;;;;;4697527;30;20053;-81
2021/09/15 08:21:56;;;;;;;;;;;19.40;99.90;;;;;;4713057;30;20317;-81
2021/09/15 08:24:29;;;;;;;15.35;13.63;;;19.40;99.90;;;;;;4698783;30;19918;-81
2021/09/15 08:26:55;;;;;;;15.73;14.10;;;19.50;99.90;;;;;;4709641;30;20418;-82
2021/09/15 08:29:28;;;;;;;16.83;15.18;;;19.50;99.90;;;;;;4710930;30;20524;-84
2021/09/15 08:31:55;;;;;;;17.23;15.52;;;19.50;99.90;;;;;;4681917;30;20424;-83
2021/09/15 08:34:21;;;;;;;17.23;15.63;;;19.60;99.90;;;;;;4712473;30;20509;-86
2021/09/15 08:36:50;;;;;;;18.42;15.95;;;19.60;99.90;;;;;;4690570;30;20059;-85
2021/09/15 08:39:21;;;;;;;19.08;17.05;;;19.60;99.90;;;;;;4701618;30;20056;-86
2021/09/15 08:41:53;;;;;;;18.48;16.58;;;19.70;99.90;;;;;;4733128;30;20053;-86
2021/09/15 08:44:22;;;;;;;18.42;16.52;;;19.80;99.90;;;;;;4711554;30;20053;-86
2021/09/15 08:46:57;;;;;;;18.90;16.92;;;19.90;99.90;;;;;;4698214;30;20052;-86
2021/09/15 08:49:33;;;;;;;20.45;17.90;;;20.00;99.90;;;;;;4694568;30;20060;-86
2021/09/15 08:52:07;;;;;;;22.00;19.83;;;20.00;99.90;;;;;;4703538;30;20052;-86
2021/09/15 08:54:34;;;;;;;22.33;20.02;;;20.10;99.90;;;;;;4723265;30;20609;-85
2021/09/15 08:57:04;;;;;;;22.40;20.13;;;20.10;99.90;;;;;;4734620;30;20059;-85
2021/09/15 08:59:41;;;;;;;24.10;21.50;;;20.10;99.90;;;;;;4735045;30;20067;-86
2021/09/15 09:02:12;;;;;;;25.38;22.75;;;20.20;99.90;;;;;;4732904;30;20056;-86
2021/09/15 09:05:08;;;;;;;24.50;22.02;;;20.30;99.90;;;;;;4748552;30;20051;-87
2021/09/15 09:08:00;;;;;;;24.67;22.10;;;20.30;99.90;;;;;;4740844;30;20043;-88
2021/09/15 09:10:34;;;;;;;27.92;24.92;;;20.40;99.90;;;;;;4739955;30;20491;-87
2021/09/15 09:13:18;;;;;;;28.58;25.60;;;20.50;99.90;;;;;;4724406;30;20056;-86
2021/09/15 09:15:53;;;;;;;27.80;25.00;;;20.60;99.90;;;;;;4736607;30;20063;-86
2021/09/15 09:18:24;;;;;;;31.08;26.60;;;20.60;99.90;;;;;;4734654;30;20052;-86
2021/09/15 09:20:53;;;;;;;27.92;25.00;;;20.70;99.90;;;;;;4719893;30;20056;-86
2021/09/15 09:23:41;;;;;;;32.40;29.02;;;20.90;99.90;;;;;;4734550;30;20055;-87
2021/09/15 09:26:10;;;;;;;31.77;27.33;;;21.00;99.90;;;;;;4738694;30;20060;-87
2021/09/15 09:28:41;;;;;;;30.55;27.35;;;21.10;99.90;;;;;;4747178;30;20055;-86
2021/09/15 09:31:13;;;;;;;28.63;25.67;;;21.30;99.90;;;;;;4737282;30;20059;-87
2021/09/15 09:34:05;;;;;;;29.27;26.17;;;21.40;99.90;;;;;;4733476;30;20415;-87
2021/09/15 09:36:34;;;;;;;27.90;25.10;;;21.40;99.90;;;;;;4750688;30;20055;-87
2021/09/15 09:39:10;;;;;;;29.05;25.98;;;21.50;99.90;;;;;;4757235;30;20514;-87
2021/09/15 09:41:39;;;;;;;28.83;25.92;;;21.60;99.90;;;;;;4718193;30;20052;-87
2021/09/15 09:44:06;;;;;;;31.75;28.40;;;21.70;99.90;;;;;;4740949;30;20067;-87
2021/09/15 09:46:41;;;;;;;29.63;26.63;;;21.70;99.90;;;;;;4739777;30;20048;-84
2021/09/15 09:49:16;;;;;;;;;;;21.70;99.90;;;;;;4732117;30;20036;-85
2021/09/15 09:51:45;;;;;;;29.75;26.90;;;21.70;99.90;;;;;;4733603;30;20396;-84
2021/09/15 09:54:17;;;;;;;29.73;26.75;;;21.70;99.90;;;;;;4748061;30;20063;-84
2021/09/15 09:56:45;;;;;;;30.33;27.25;;;21.70;99.90;;;;;;4747376;30;20492;-84
2021/09/15 09:59:12;;;;;;;31.88;28.77;;;21.70;99.90;;;;;;4723654;30;20052;-85
2021/09/15 10:01:46;;;;;;;31.50;28.17;;;21.70;99.90;;;;;;4747884;30;20060;-84
2021/09/15 10:04:14;;;;;;;31.25;28.10;;;21.70;99.90;;;;;;4748289;30;20046;-87
2021/09/15 10:06:47;;;;;;;32.72;29.55;;;21.70;99.90;;;;;;4733737;30;20048;-87
2021/09/15 10:09:17;;;;;;;34.72;31.23;;;21.70;99.90;;;;;;4750500;30;20027;-87
2021/09/15 10:11:47;;;;;;;33.78;30.35;;;21.70;99.90;;;;;;4736701;30;20058;-88
2021/09/15 10:14:16;;;;;;;35.22;31.60;;;21.70;99.90;;;;;;4751872;30;20062;-89
2021/09/15 10:17:01;;;;;;;34.90;31.33;;;21.80;99.90;;;;;;4747523;30;20040;-89
2021/09/15 10:19:36;;;;;;;35.35;31.63;;;21.80;99.90;;;;;;4749336;30;20070;-88
2021/09/15 10:22:04;;;;;;;34.75;31.17;;;21.90;99.90;;;;;;4719563;30;20047;-88
2021/09/15 10:24:54;;;;;;;35.20;31.60;;;21.90;99.90;;;;;;4732407;30;20048;-89
2021/09/15 10:27:58;;;;;;;36.45;32.55;;;22.00;99.90;;;;;;4735220;30;20051;-88
2021/09/15 10:30:47;;;;;;;39.13;35.03;;;22.10;99.90;;;;;;4746018;30;20056;-89
2021/09/15 10:33:35;;;;;;;40.47;36.20;;;22.30;99.90;;;;;;4734757;30;20334;-88
2021/09/15 10:36:20;;;;;;;38.33;34.45;;;22.50;99.90;;;;;;4733297;30;20044;-89
2021/09/15 10:38:57;;;;;;;39.75;35.65;;;22.60;99.90;;;;;;4748883;30;20063;-89
2021/09/15 10:41:38;;;;;;;39.22;35.15;;;22.60;99.90;;;;;;4734907;30;20060;-90
2021/09/15 10:44:12;;;;;;;38.43;34.40;;;22.60;99.90;;;;;;4718906;30;20397;-89
2021/09/15 10:46:41;;;;;;;40.50;36.22;;;22.60;99.90;;;;;;4735081;30;20358;-88
2021/09/15 10:49:25;;;;;;;38.10;33.67;;;22.60;99.90;;;;;;4749708;30;20036;-88
2021/09/15 10:52:10;;;;;;;42.85;36.75;;;22.40;99.90;;;;;;4749999;30;20048;-87
2021/09/15 10:54:46;;;;;;;42.22;37.65;;;22.30;99.90;;;;;;4736562;30;20508;-87
2021/09/15 10:57:19;;;;;;;40.70;36.33;;;22.10;99.90;;;;;;4737608;30;20506;-88
2021/09/15 11:00:15;;;;;;;;;;;;;;;;;;;;;
2021/09/15 11:03:30;;;;;;;41.58;37.15;;;22.00;99.90;;;;;;4748636;30;20071;-88
2021/09/15 11:06:17;;;;;;;45.08;39.65;;;22.10;99.90;;;;;;4750637;30;20052;-87
2021/09/15 11:08:54;;;;;;;39.38;34.97;;;22.30;99.90;;;;;;4738850;30;20040;-87
2021/09/15 11:11:27;;;;;;;;;;;22.50;99.90;;;;;;4734037;30;20063;-88
2021/09/15 11:14:03;;;;;;;38.42;34.28;;;22.80;99.90;;;;;;4722995;30;20396;-87
2021/09/15 11:17:03;;;;;;;39.03;34.35;;;23.00;99.90;;;;;;4736691;30;20066;-87
2021/09/15 11:19:44;;;;;;;36.30;32.45;;;23.30;99.90;;;;;;4747902;30;20044;-83
2021/09/15 11:25:14;;;;;;;32.42;28.75;;;23.80;99.90;;;;;;4706838;30;20461;-80
2021/09/15 11:28:09;;;;;;;32.47;27.60;;;24.00;99.90;;;;;;4723672;30;20052;-82
2021/09/15 11:30:56;;;;;;;30.00;26.80;;;24.30;99.90;;;;;;4747623;30;20040;-84
2021/09/15 11:33:29;;;;;;;28.42;25.50;;;24.60;99.90;;;;;;4733135;30;20044;-82
2021/09/15 11:36:06;;;;;;;29.70;26.45;;;24.60;99.90;;;;;;4732795;30;20392;-82
2021/09/15 11:38:36;;;;;;;27.88;24.27;;;24.40;99.90;;;;;;4732637;30;20404;-82
2021/09/15 11:41:11;;;;;;;27.20;24.40;;;24.10;99.90;;;;;;4718290;30;20044;-82
2021/09/15 11:43:40;;;;;;;24.35;21.77;;;24.00;99.90;;;;;;4746674;30;20047;-82
2021/09/15 11:46:07;;;;;;;26.05;23.33;;;23.80;99.90;;;;;;4731071;30;20052;-82
2021/09/15 11:48:35;;;;;;;25.35;22.77;;;23.70;99.90;;;;;;4732011;30;20036;-82
2021/09/15 11:51:19;;;;;;;26.80;23.90;;;23.50;99.90;;;;;;4747760;30;20039;-82
2021/09/15 11:53:52;;;;;;;25.65;22.95;;;23.30;99.90;;;;;;4738575;30;20047;-81
2021/09/15 11:56:29;;;;;;;24.35;21.90;;;23.10;99.90;;;;;;4733457;30;20048;-87
2021/09/15 11:58:57;;;;;;;22.73;20.42;;;23.00;99.90;;;;;;4714583;30;20056;-88
2021/09/15 12:01:25;;;;;;;23.40;21.00;;;22.90;99.90;;;;;;4719794;30;20052;-88
2021/09/15 12:03:54;;;;;;;26.75;23.90;;;22.90;99.90;;;;;;4735665;30;20055;-86
2021/09/15 12:06:21;;;;;;;27.00;24.30;;;22.80;99.90;;;;;;4731152;30;20417;-89
2021/09/15 12:08:48;;;;;;;30.10;26.98;;;22.70;99.90;;;;;;4731166;30;20063;-89
2021/09/15 12:11:29;;;;;;;31.75;28.15;;;22.80;99.90;;;;;;4729147;30;20527;-89
2021/09/15 12:14:09;;;;;;;28.45;25.58;;;22.80;99.90;;;;;;4745260;30;20559;-91
2021/09/15 12:16:38;;;;;;;30.25;27.08;;;22.80;99.90;;;;;;4707319;30;20531;-86
2021/09/15 12:19:30;;;;;;;34.88;31.23;;;22.80;99.90;;;;;;4741018;30;20079;-88
2021/09/15 12:22:34;;;;;;;33.35;30.15;;;22.70;99.90;;;;;;4745667;30;20052;-87
2021/09/15 12:25:33;;;;;;;31.20;28.25;;;22.40;99.90;;;;;;4749318;30;20047;-89
2021/09/15 12:28:32;;;;;;;28.92;25.98;;;22.40;99.90;;;;;;4679687;30;20044;-89
2021/09/15 12:31:00;;;;;;;24.08;21.88;;;22.40;99.90;;;;;;4732391;30;20048;-85
2021/09/15 12:33:30;;;;;;;21.92;19.90;;;22.40;99.90;;;;;;4730866;30;20044;-85
2021/09/15 12:36:18;;;;;;;18.52;16.77;;;22.60;99.90;;;;;;4730931;30;20055;-86
2021/09/15 12:38:45;;;;;;;14.32;12.73;;;22.70;99.90;;;;;;4734442;30;20056;-89
2021/09/15 12:41:11;;;;;;;13.38;11.70;;;22.80;99.90;;;;;;4746391;30;20404;-91
2021/09/15 12:43:38;;;;;;;11.55;10.35;;;22.90;99.90;;;;;;4721984;30;20056;-89
2021/09/15 12:46:25;;;;;;;9.10;8.20;;;23.30;99.90;;;;;;4733981;30;20401;-90
2021/09/15 12:48:52;;;;;;;7.88;7.15;;;24.10;99.90;;;;;;4735055;30;20051;-85
2021/09/15 12:51:23;;;;;;;7.18;6.28;;;24.80;99.90;;;;;;4746662;30;20040;-89
2021/09/15 12:53:55;;;;;;;9.73;7.50;;;25.50;99.90;;;;;;4749634;30;20055;-90
2021/09/15 12:56:32;;;;;;;4.47;4.05;;;26.00;99.90;;;;;;4734825;30;20058;-90
2021/09/15 12:58:59;;;;;;;5.15;4.75;;;26.10;99.90;;;;;;4734582;30;20055;-90
2021/09/15 13:01:25;;;;;;;7.28;5.35;;;26.30;99.00;;;;;;4730711;30;20050;-90
2021/09/15 13:03:52;;;;;;;5.55;4.38;;;26.40;98.30;;;;;;4752800;30;20086;-91
2021/09/15 13:06:20;;;;;;;3.78;3.45;;;26.20;97.40;;;;;;4717017;30;20039;-90
2021/09/15 13:08:51;;;;;;;3.35;2.92;;;26.20;98.30;;;;;;4733886;30;20048;-91
2021/09/15 13:11:18;;;;;;;2.33;2.13;;;26.70;97.00;;;;;;4735837;30;20048;-90
2021/09/15 13:13:52;;;;;;;1.92;1.63;;;27.00;96.20;;;;;;4735509;30;20075;-89
2021/09/15 13:16:20;;;;;;;3.72;2.78;;;27.40;96.30;;;;;;4732410;30;20074;-88
2021/09/15 13:18:46;;;;;;;2.33;1.85;;;28.30;95.90;;;;;;4748258;30;20055;-88
2021/09/15 13:21:13;;;;;;;3.00;1.48;;;29.20;95.00;;;;;;4720132;30;20059;-87
2021/09/15 13:23:40;;;;;;;2.88;1.02;;;29.70;93.30;;;;;;4748077;30;20044;-88
2021/09/15 13:26:06;;;;;;;3.72;1.10;;;29.80;92.50;;;;;;4748887;30;20044;-89